Time;durP1;ratioP1;P1;durP2;ratioP2;P2;SDS_P1;SDS_P2;PMS_P1;PMS_P2;Temp;Humidity;BMP_temperature;BMP_pressure;BME280_temperature;BME280_humidity;BME280_pressure;Samples;Min_cycle;Max_cycle;Signal;HPM_P1;HPM_P2
2023/09/30 00:02:12;;;;;;;3.15;2.53;;;;;;;20.05;59.04;98027.72;4857146;29;20159;-84
2023/09/30 00:04:37;;;;;;;3.33;2.05;;;;;;;20.20;59.18;98043.38;4861491;29;20177;-84
2023/09/30 00:07:03;;;;;;;2.33;1.95;;;;;;;20.17;59.55;98057.19;4840144;29;20466;-86
2023/09/30 00:09:28;;;;;;;2.80;2.15;;;;;;;20.00;59.49;98037.31;4841573;29;20371;-86
2023/09/30 00:11:55;;;;;;;2.50;2.30;;;;;;;19.93;59.40;98033.41;4857018;29;20287;-86
2023/09/30 00:14:20;;;;;;;1.80;1.70;;;;;;;20.21;58.94;98077.47;4840503;29;20193;-86
2023/09/30 00:16:45;;;;;;;2.58;2.13;;;;;;;20.26;59.09;98084.56;4821406;29;20147;-86
2023/09/30 00:19:11;;;;;;;2.50;2.30;;;;;;;20.27;59.56;98080.03;4853118;29;20257;-86
2023/09/30 00:21:36;;;;;;;4.75;2.70;;;;;;;20.30;59.61;98080.25;4854246;29;20166;-86
2023/09/30 00:24:02;;;;;;;2.30;2.00;;;;;;;20.34;58.81;98076.00;4821986;29;20253;-86
2023/09/30 00:26:27;;;;;;;2.50;2.22;;;;;;;20.19;59.26;98061.09;4871228;29;20309;-86
2023/09/30 00:28:52;;;;;;;2.25;1.85;;;;;;;20.17;59.23;98050.03;4839355;29;20256;-86
2023/09/30 00:31:18;;;;;;;2.72;2.00;;;;;;;20.17;59.21;98057.19;4837391;29;20178;-86
2023/09/30 00:33:43;;;;;;;2.10;1.90;;;;;;;20.16;59.41;98051.09;4853946;29;20212;-86
2023/09/30 00:36:10;;;;;;;2.50;2.22;;;;;;;20.22;59.20;98059.75;4837509;29;20182;-86
2023/09/30 00:38:39;;;;;;;2.80;2.05;;;;;;;20.26;59.37;98062.63;4870678;29;20235;-86
2023/09/30 00:41:05;;;;;;;2.80;2.28;;;;;;;20.04;59.54;98044.66;4858735;29;20295;-86
2023/09/30 00:43:32;;;;;;;3.50;2.20;;;;;;;20.14;59.58;98071.75;4825919;29;20181;-86
2023/09/30 00:46:05;;;;;;;3.00;2.30;;;;;;;20.02;59.41;98056.31;4843605;29;20154;-86
2023/09/30 00:48:32;;;;;;;2.33;2.13;;;;;;;20.11;59.04;98076.81;5324092;23;20046;-85
2023/09/30 00:50:58;;;;;;;2.20;2.00;;;;;;;19.91;59.15;98049.59;4874130;28;20279;-85
2023/09/30 00:53:23;;;;;;;3.13;2.00;;;;;;;20.09;58.54;98081.63;4855740;29;20389;-85
2023/09/30 00:55:49;;;;;;;2.85;2.40;;;;;;;20.07;58.38;98083.75;4862443;29;20097;-84
2023/09/30 00:58:14;;;;;;;2.53;2.33;;;;;;;19.83;59.10;98063.41;4851484;29;20178;-85
2023/09/30 01:00:40;;;;;;;2.83;1.90;;;;;;;19.87;58.64;98080.28;4842215;29;20238;-85
2023/09/30 01:03:06;;;;;;;2.80;2.45;;;;;;;19.88;59.37;98081.84;4865003;29;20284;-85
2023/09/30 01:05:32;;;;;;;2.78;2.10;;;;;;;19.72;59.56;98056.63;4844778;29;20188;-85
2023/09/30 01:07:57;;;;;;;2.78;2.40;;;;;;;19.75;59.47;98059.53;4871792;29;20224;-85
2023/09/30 01:10:22;;;;;;;2.35;2.00;;;;;;;19.78;59.78;98071.41;4817676;29;20203;-85
2023/09/30 01:12:48;;;;;;;2.40;2.20;;;;;;;19.73;59.86;98064.28;4836771;29;20213;-85
2023/09/30 01:15:13;;;;;;;2.72;2.13;;;;;;;19.69;60.03;98070.41;4816626;29;20170;-85
2023/09/30 01:17:38;;;;;;;3.17;2.15;;;;;;;19.78;59.60;98079.34;4817669;29;20652;-85
2023/09/30 01:20:06;;;;;;;2.92;2.55;;;;;;;19.72;59.48;98086.47;4832124;29;20248;-84
2023/09/30 01:22:32;;;;;;;3.60;2.65;;;;;;;19.53;60.21;98046.81;4816566;29;20224;-85
2023/09/30 01:24:58;;;;;;;2.95;2.75;;;;;;;19.85;59.46;98066.56;4818104;29;20702;-85
2023/09/30 01:27:23;;;;;;;2.55;1.95;;;;;;;19.71;59.48;98055.88;4826422;29;20288;-85
2023/09/30 01:29:49;;;;;;;2.60;2.40;;;;;;;19.74;59.96;98078.28;4860598;29;20155;-85
2023/09/30 01:32:14;;;;;;;3.30;2.13;;;;;;;19.67;60.16;98075.97;4826929;29;20316;-85
2023/09/30 01:34:40;;;;;;;2.80;2.17;;;;;;;19.63;59.94;98072.31;4832686;29;20255;-85
2023/09/30 01:37:06;;;;;;;2.30;2.10;;;;;;;19.71;60.28;98100.00;4838896;29;20052;-85
2023/09/30 01:39:32;;;;;;;3.15;2.45;;;;;;;19.70;60.87;98093.13;4855074;29;20192;-84
2023/09/30 01:42:00;;;;;;;2.30;2.10;;;;;;;19.52;61.11;98076.94;4833114;29;20209;-85
2023/09/30 01:44:26;;;;;;;2.80;2.15;;;;;;;19.64;60.70;98092.41;4870385;29;20302;-85
2023/09/30 01:46:51;;;;;;;2.58;2.15;;;;;;;19.64;60.56;98085.25;4838674;29;20186;-85
2023/09/30 01:49:18;;;;;;;2.53;2.28;;;;;;;19.63;60.84;98074.97;4848335;29;20269;-85
2023/09/30 01:51:44;;;;;;;3.03;2.30;;;;;;;19.76;60.06;98082.25;4850028;29;20328;-85
2023/09/30 01:54:10;;;;;;;2.63;2.03;;;;;;;19.72;60.29;98083.06;4837474;29;20094;-85
2023/09/30 01:56:36;;;;;;;3.95;2.20;;;;;;;19.67;60.44;98086.53;4856117;29;20355;-85
2023/09/30 01:59:01;;;;;;;2.58;2.38;;;;;;;19.67;60.43;98073.31;4848759;29;20198;-85
2023/09/30 02:01:27;;;;;;;3.58;2.13;;;;;;;19.69;60.10;98070.41;4851467;29;20268;-85
2023/09/30 02:03:52;;;;;;;2.47;2.28;;;;;;;19.49;60.54;98051.09;4857382;29;20260;-85
2023/09/30 02:06:17;;;;;;;2.70;2.50;;;;;;;19.63;59.87;98070.47;4861097;29;20271;-85
2023/09/30 02:08:44;;;;;;;2.92;2.47;;;;;;;19.60;60.36;98073.69;4831282;29;20300;-85
2023/09/30 02:11:09;;;;;;;2.97;2.33;;;;;;;19.48;60.11;98059.28;4821980;29;20189;-85
2023/09/30 02:13:35;;;;;;;4.05;2.15;;;;;;;19.40;60.50;98048.28;4830247;29;20279;-85
2023/09/30 02:16:01;;;;;;;2.75;1.98;;;;;;;19.48;60.76;98070.63;4863927;29;20185;-85
2023/09/30 02:18:27;;;;;;;2.38;2.08;;;;;;;19.46;60.45;98056.91;4850226;29;20382;-85
2023/09/30 02:20:53;;;;;;;2.92;2.60;;;;;;;19.61;60.60;98075.25;4843215;29;20307;-85
2023/09/30 02:23:18;;;;;;;2.95;2.10;;;;;;;19.41;60.19;98072.81;4841186;29;20106;-85
2023/09/30 02:25:44;;;;;;;2.70;2.10;;;;;;;19.43;60.99;98097.91;4816815;29;20186;-84
2023/09/30 02:28:10;;;;;;;2.33;2.13;;;;;;;19.52;60.70;98098.06;4827359;29;20183;-85
2023/09/30 02:30:36;;;;;;;2.28;2.08;;;;;;;19.31;60.82;98083.47;4826111;29;20212;-85
2023/09/30 02:33:02;;;;;;;4.53;2.40;;;;;;;19.12;61.28;98072.84;4831387;29;20102;-84
2023/09/30 02:35:28;;;;;;;2.35;2.05;;;;;;;19.11;61.83;98077.34;4852335;29;20692;-85
2023/09/30 02:37:54;;;;;;;2.40;2.08;;;;;;;19.09;61.77;98063.63;4857661;29;20216;-85
2023/09/30 02:40:19;;;;;;;3.75;2.28;;;;;;;19.24;61.76;98081.16;4841010;29;20164;-84
2023/09/30 02:42:45;;;;;;;3.45;2.72;;;;;;;19.19;61.64;98100.50;4845483;29;20228;-84
2023/09/30 02:45:12;;;;;;;3.20;2.20;;;;;;;19.19;61.60;98121.63;4838889;29;20162;-84
2023/09/30 02:47:38;;;;;;;2.72;2.53;;;;;;;19.09;61.17;98109.28;4865549;29;20176;-85
2023/09/30 02:50:08;;;;;;;2.45;2.15;;;;;;;19.17;61.53;98122.94;4838889;29;20249;-85
2023/09/30 02:52:33;;;;;;;2.67;2.45;;;;;;;19.00;61.62;98105.66;4829478;29;20483;-85
2023/09/30 02:54:59;;;;;;;3.22;2.17;;;;;;;19.03;61.43;98106.97;4857200;29;20393;-85
2023/09/30 02:57:25;;;;;;;2.88;2.22;;;;;;;19.03;61.34;98105.09;4853081;29;20209;-84
2023/09/30 02:59:51;;;;;;;2.35;2.15;;;;;;;19.01;60.85;98103.81;4839989;29;20100;-85
2023/09/30 03:02:18;;;;;;;2.92;2.20;;;;;;;18.96;61.23;98095.94;4839350;29;20228;-85
2023/09/30 03:04:43;;;;;;;3.80;2.42;;;;;;;18.89;61.09;98086.47;4841520;29;20254;-85
2023/09/30 03:07:09;;;;;;;2.60;2.40;;;;;;;18.69;61.03;98061.00;4873329;29;20138;-85
2023/09/30 03:09:35;;;;;;;3.10;2.80;;;;;;;18.71;61.29;98072.06;4844934;29;20174;-85
2023/09/30 03:12:02;;;;;;;2.70;2.47;;;;;;;18.67;61.24;98068.41;4842158;29;20198;-84
2023/09/30 03:14:30;;;;;;;2.63;2.42;;;;;;;18.50;61.68;98052.94;4878461;29;20211;-85
2023/09/30 03:16:57;;;;;;;2.75;2.55;;;;;;;18.62;61.99;98086.13;4846900;29;20202;-85
2023/09/30 03:19:22;;;;;;;3.10;2.38;;;;;;;18.41;61.55;98054.59;4871929;29;20361;-85
2023/09/30 03:21:48;;;;;;;3.15;2.45;;;;;;;18.57;61.70;98099.34;4853710;29;20209;-85
2023/09/30 03:24:13;;;;;;;3.05;2.70;;;;;;;18.46;61.67;98094.13;4821950;29;20579;-85
2023/09/30 03:26:41;;;;;;;2.50;2.30;;;;;;;18.26;61.63;98073.16;4841938;29;20032;-84
2023/09/30 03:29:07;;;;;;;2.40;2.15;;;;;;;18.23;61.89;98068.41;4826347;29;20272;-85
2023/09/30 03:31:32;;;;;;;3.08;2.47;;;;;;;18.38;61.84;98099.97;4848062;29;20286;-85
2023/09/30 03:33:58;;;;;;;3.35;2.60;;;;;;;18.27;60.87;98093.19;4831739;29;20209;-85
2023/09/30 03:36:26;;;;;;;3.00;2.70;;;;;;;18.25;61.51;98109.28;4844633;29;20222;-85
2023/09/30 03:38:58;;;;;;;3.30;2.33;;;;;;;18.18;61.11;98116.69;4842892;29;20156;-85
2023/09/30 03:41:24;;;;;;;2.50;2.05;;;;;;;18.03;61.30;98108.84;4840253;29;20493;-85
2023/09/30 03:43:49;;;;;;;2.63;2.35;;;;;;;18.01;61.20;98114.38;4844482;29;20146;-85
2023/09/30 03:46:15;;;;;;;3.45;2.80;;;;;;;17.98;61.16;98112.28;4873945;29;20211;-84
2023/09/30 03:48:42;;;;;;;3.00;2.65;;;;;;;17.75;61.66;98077.56;4847057;29;20109;-84
2023/09/30 03:51:14;;;;;;;3.40;2.92;;;;;;;17.99;61.96;98121.75;4866349;29;20240;-85
2023/09/30 03:53:46;;;;;;;3.28;2.58;;;;;;;17.90;61.97;98123.38;4872428;29;20261;-85
2023/09/30 03:56:11;;;;;;;4.05;3.40;;;;;;;17.86;61.79;98109.94;4848825;29;20247;-85
2023/09/30 03:58:38;;;;;;;3.20;2.80;;;;;;;17.95;61.77;98121.50;4838082;29;20248;-84
2023/09/30 04:01:04;;;;;;;2.95;2.70;;;;;;;17.87;62.01;98108.91;4864850;28;20169;-85
2023/09/30 04:03:32;;;;;;;3.60;2.35;;;;;;;17.89;61.75;98114.69;4861319;29;20287;-85
2023/09/30 04:05:57;;;;;;;2.75;2.55;;;;;;;17.85;62.13;98112.81;4870198;29;20166;-84
2023/09/30 04:08:23;;;;;;;2.95;2.33;;;;;;;17.81;62.10;98107.28;4877310;28;20236;-85
2023/09/30 04:10:49;;;;;;;2.40;2.20;;;;;;;17.72;62.56;98087.84;4849823;29;20185;-85
2023/09/30 04:15:49;;;;;;;2.78;2.58;;;;;;;17.67;61.71;98087.84;5490857;23;20206;-86
2023/09/30 04:18:14;;;;;;;2.95;2.20;;;;;;;17.72;61.58;98114.19;4874399;29;20274;-86
2023/09/30 04:20:40;;;;;;;2.20;1.95;;;;;;;17.72;61.70;98101.78;4848826;29;20596;-85
2023/09/30 04:23:06;;;;;;;2.60;2.13;;;;;;;17.65;61.34;98106.56;4845583;29;20712;-85
2023/09/30 04:25:32;;;;;;;2.55;2.35;;;;;;;17.72;61.45;98122.88;4849206;29;20225;-85
2023/09/30 04:27:57;;;;;;;3.35;2.55;;;;;;;17.74;61.92;98126.00;4851729;29;20244;-85
2023/09/30 04:30:23;;;;;;;3.45;2.08;;;;;;;17.60;62.48;98119.75;4833174;29;20296;-85
2023/09/30 04:32:48;;;;;;;2.60;2.40;;;;;;;17.77;62.71;98149.19;4851733;29;20104;-85
2023/09/30 04:35:14;;;;;;;2.33;2.13;;;;;;;17.78;62.84;98142.06;4836967;29;20363;-85
2023/09/30 04:37:40;;;;;;;3.67;3.05;;;;;;;17.89;62.81;98143.66;4820225;29;20170;-85
2023/09/30 04:40:07;;;;;;;3.00;2.67;;;;;;;17.99;63.21;98142.03;4849707;29;20248;-86
2023/09/30 04:42:36;;;;;;;3.00;2.45;;;;;;;17.94;63.74;98125.22;4857737;29;20204;-86
2023/09/30 04:45:02;;;;;;;2.75;2.55;;;;;;;17.92;63.72;98111.50;4860393;29;20296;-85
2023/09/30 04:47:28;;;;;;;3.90;3.17;;;;;;;18.00;63.53;98120.69;4873099;29;20275;-86
2023/09/30 04:49:53;;;;;;;4.07;3.00;;;;;;;18.15;63.86;98125.91;4858494;29;20177;-86
2023/09/30 04:52:19;;;;;;;3.88;2.65;;;;;;;18.14;64.27;98124.31;4865310;29;20154;-86
2023/09/30 04:54:45;;;;;;;4.40;2.67;;;;;;;18.26;63.71;98124.00;4852413;29;20196;-86
2023/09/30 04:57:11;;;;;;;2.88;2.67;;;;;;;18.16;63.15;98108.25;4857693;29;20271;-85
2023/09/30 04:59:39;;;;;;;3.45;2.53;;;;;;;18.26;63.20;98120.59;4845265;29;20196;-86
2023/09/30 05:02:04;;;;;;;3.40;2.50;;;;;;;18.17;63.01;98132.78;4867831;29;20208;-86
2023/09/30 05:04:30;;;;;;;2.70;2.50;;;;;;;17.81;63.39;98117.84;4846139;29;20196;-86
2023/09/30 05:06:55;;;;;;;3.60;2.85;;;;;;;17.99;63.03;98148.09;4844095;29;20235;-86
2023/09/30 05:09:21;;;;;;;3.05;2.72;;;;;;;17.95;63.88;98132.03;4851233;29;20282;-86
2023/09/30 05:11:46;;;;;;;2.60;2.40;;;;;;;17.99;63.69;98128.88;4855581;29;20162;-86
2023/09/30 05:14:11;;;;;;;3.28;2.80;;;;;;;17.92;63.64;98118.63;4875251;28;20228;-86
2023/09/30 05:16:37;;;;;;;4.45;2.80;;;;;;;17.91;63.63;98107.28;4863624;28;20247;-86
2023/09/30 05:19:03;;;;;;;3.83;2.95;;;;;;;18.09;63.63;98116.44;4860487;29;20281;-85
2023/09/30 05:21:29;;;;;;;3.03;2.63;;;;;;;18.17;63.42;98132.78;4859762;29;20131;-86
2023/09/30 05:23:54;;;;;;;2.70;2.50;;;;;;;18.09;63.13;98124.34;4863616;29;20188;-86
2023/09/30 05:26:19;;;;;;;3.28;2.60;;;;;;;18.18;63.36;98140.41;4856863;29;20208;-85
2023/09/30 05:28:45;;;;;;;2.90;2.70;;;;;;;18.15;63.47;98143.59;4827731;29;20663;-86
2023/09/30 05:31:10;;;;;;;3.10;2.75;;;;;;;18.24;63.13;98155.13;4835268;29;20228;-85
2023/09/30 05:33:36;;;;;;;3.35;2.88;;;;;;;18.29;63.41;98165.66;4817580;29;20213;-85
2023/09/30 05:36:03;;;;;;;3.08;2.78;;;;;;;18.23;63.39;98156.22;4840751;29;20701;-85
2023/09/30 05:38:31;;;;;;;3.35;2.75;;;;;;;18.23;64.13;98152.75;4834598;29;20165;-86
2023/09/30 05:40:58;;;;;;;3.53;3.17;;;;;;;18.34;63.46;98168.28;4835928;29;20256;-85
2023/09/30 05:43:24;;;;;;;3.08;2.75;;;;;;;18.41;63.54;98173.25;4846874;29;20318;-86
2023/09/30 05:45:54;;;;;;;3.47;3.17;;;;;;;18.20;63.84;98142.75;4822136;29;21019;-85
2023/09/30 05:48:20;;;;;;;2.97;2.72;;;;;;;18.31;63.72;98168.03;4852857;29;20189;-85
2023/09/30 05:50:46;;;;;;;3.63;3.10;;;;;;;18.13;64.26;98138.56;4833612;29;20193;-86
2023/09/30 05:53:11;;;;;;;3.95;3.35;;;;;;;18.15;63.78;98151.50;4865482;29;20161;-86
2023/09/30 05:55:37;;;;;;;3.53;3.22;;;;;;;18.32;63.47;98180.94;4824967;29;20184;-85
2023/09/30 05:58:02;;;;;;;3.80;3.05;;;;;;;18.34;63.90;98191.22;4835090;29;20216;-86
2023/09/30 06:00:30;;;;;;;4.63;3.13;;;;;;;18.28;63.52;98176.47;4850582;29;20291;-85
2023/09/30 06:02:57;;;;;;;3.40;3.10;;;;;;;18.39;63.59;98191.19;4846642;29;20201;-85
2023/09/30 06:05:22;;;;;;;4.22;3.08;;;;;;;18.22;63.35;98165.16;4836462;29;20177;-86
2023/09/30 06:07:48;;;;;;;4.22;3.10;;;;;;;18.21;63.80;98166.22;4862912;29;20185;-86
2023/09/30 06:10:18;;;;;;;3.20;2.90;;;;;;;18.24;63.29;98162.25;4854788;29;20244;-86
2023/09/30 06:12:44;;;;;;;3.42;3.13;;;;;;;18.44;63.29;98185.91;4844350;29;20208;-85
2023/09/30 06:15:10;;;;;;;3.95;2.83;;;;;;;18.49;62.85;98182.44;4852843;29;20222;-85
2023/09/30 06:17:35;;;;;;;4.25;3.03;;;;;;;18.50;63.45;98184.81;4855301;29;20198;-85
2023/09/30 06:20:08;;;;;;;3.65;3.00;;;;;;;18.59;63.20;98182.41;4855596;29;20221;-86
2023/09/30 06:22:33;;;;;;;3.33;3.00;;;;;;;18.58;63.43;98172.91;4860181;29;20300;-86
2023/09/30 06:24:59;;;;;;;3.22;2.90;;;;;;;18.58;63.33;98158.94;4876024;29;20224;-86
2023/09/30 06:27:24;;;;;;;4.32;3.20;;;;;;;18.69;63.06;98171.00;4859848;29;20248;-85
2023/09/30 06:29:49;;;;;;;5.90;3.53;;;;;;;18.66;63.24;98167.06;4845921;29;20217;-86
2023/09/30 06:32:15;;;;;;;3.75;3.40;;;;;;;18.59;63.95;98163.16;4855993;29;20205;-85
2023/09/30 06:34:40;;;;;;;4.38;3.60;;;;;;;18.74;63.17;98160.44;4851477;29;20224;-85
2023/09/30 06:37:06;;;;;;;6.38;4.00;;;;;;;18.87;62.90;98188.88;4836419;29;20209;-86
2023/09/30 06:39:31;;;;;;;3.30;2.95;;;;;;;18.88;62.16;98201.03;4828785;29;20240;-86
2023/09/30 06:41:59;;;;;;;2.80;2.50;;;;;;;18.90;62.50;98200.72;4848435;29;20265;-85
2023/09/30 06:44:25;;;;;;;2.83;2.40;;;;;;;19.02;61.97;98184.56;4863679;29;20454;-85
2023/09/30 06:46:50;;;;;;;3.28;2.95;;;;;;;19.16;62.16;98204.00;4845811;29;20248;-86
2023/09/30 06:49:16;;;;;;;3.90;2.80;;;;;;;19.11;62.64;98203.22;4841728;29;20192;-85
2023/09/30 06:51:42;;;;;;;4.57;3.30;;;;;;;19.10;62.92;98202.44;4832329;29;20248;-86
2023/09/30 06:54:07;;;;;;;4.60;3.50;;;;;;;19.14;62.76;98206.13;4866415;29;20252;-85
2023/09/30 06:56:33;;;;;;;3.25;2.95;;;;;;;19.04;63.05;98183.22;4837154;29;20292;-86
2023/09/30 06:58:59;;;;;;;3.53;3.22;;;;;;;19.22;62.50;98213.44;4859526;29;20200;-86
2023/09/30 07:01:24;;;;;;;5.80;3.58;;;;;;;19.14;62.82;98215.88;4855995;29;20192;-85
2023/09/30 07:03:51;;;;;;;4.85;3.50;;;;;;;18.93;62.53;98191.50;4845421;29;20288;-86
2023/09/30 07:06:26;;;;;;;4.40;3.55;;;;;;;19.15;62.78;98201.63;4837292;29;20272;-86
2023/09/30 07:08:52;;;;;;;3.67;3.38;;;;;;;19.21;62.27;98222.47;4819137;29;20205;-85
2023/09/30 07:11:26;;;;;;;4.20;3.40;;;;;;;19.34;62.04;98222.88;4836039;29;20165;-85
2023/09/30 07:13:51;;;;;;;3.67;3.38;;;;;;;19.34;61.78;98217.59;4854668;29;20169;-85
2023/09/30 07:16:17;;;;;;;5.50;4.43;;;;;;;19.41;61.88;98212.78;4841918;29;20283;-85
2023/09/30 07:18:42;;;;;;;6.38;4.43;;;;;;;19.39;61.76;98213.06;4839466;29;20320;-85
2023/09/30 07:21:08;;;;;;;5.82;4.32;;;;;;;19.41;61.31;98208.28;4835990;29;20706;-85
2023/09/30 07:23:33;;;;;;;5.53;4.13;;;;;;;19.59;61.50;98217.41;4853461;29;20674;-85
2023/09/30 07:25:59;;;;;;;5.07;4.22;;;;;;;19.63;61.18;98209.72;4831066;29;20272;-85
2023/09/30 07:28:24;;;;;;;6.18;4.53;;;;;;;19.75;60.55;98209.38;4823309;29;20165;-85
2023/09/30 07:30:50;;;;;;;6.45;4.30;;;;;;;19.77;60.34;98205.38;4838403;29;20205;-85
2023/09/30 07:33:15;;;;;;;6.20;4.50;;;;;;;19.89;60.71;98206.88;4837018;29;20299;-85
2023/09/30 07:35:40;;;;;;;6.70;4.43;;;;;;;19.76;60.10;98181.91;4829232;29;20265;-85
2023/09/30 07:38:06;;;;;;;6.85;4.35;;;;;;;20.01;59.73;98200.13;4808956;29;20282;-85
2023/09/30 07:40:32;;;;;;;6.18;4.50;;;;;;;20.08;59.76;98210.34;4856194;29;20620;-86
2023/09/30 07:42:58;;;;;;;7.13;4.20;;;;;;;20.30;59.01;98207.22;4840590;29;20298;-85
2023/09/30 07:45:23;;;;;;;4.97;4.00;;;;;;;20.44;58.19;98206.53;4828922;29;20209;-86
2023/09/30 07:47:49;;;;;;;7.28;4.18;;;;;;;20.49;58.33;98206.47;4833133;29;20195;-86
2023/09/30 07:50:14;;;;;;;5.80;4.00;;;;;;;20.56;57.51;98226.22;4840701;29;20174;-83
2023/09/30 07:52:41;;;;;;;5.85;3.80;;;;;;;20.69;57.12;98223.97;4848047;29;20373;-86
2023/09/30 07:55:08;;;;;;;5.50;3.42;;;;;;;20.73;57.14;98212.56;4834838;29;20051;-86
2023/09/30 07:57:33;;;;;;;6.40;3.90;;;;;;;20.98;57.27;98201.91;4853830;29;20678;-85
2023/09/30 08:00:03;;;;;;;5.25;3.42;;;;;;;20.94;56.58;98194.53;4848784;29;20281;-86
2023/09/30 08:02:33;;;;;;;3.90;3.10;;;;;;;21.09;56.09;98200.66;4827675;29;20212;-86
2023/09/30 08:05:02;;;;;;;6.28;3.38;;;;;;;21.09;55.50;98182.91;4859667;29;20287;-86
2023/09/30 08:07:27;;;;;;;5.97;4.35;;;;;;;21.14;55.24;98185.47;4839106;29;20659;-86
2023/09/30 08:09:53;;;;;;;4.78;3.58;;;;;;;21.32;55.35;98220.97;4823562;29;20212;-86
2023/09/30 08:12:19;;;;;;;4.55;3.90;;;;;;;21.37;54.95;98221.94;4840323;29;20212;-86
2023/09/30 08:14:44;;;;;;;3.50;2.83;;;;;;;21.42;54.43;98214.72;4839138;29;20208;-83
2023/09/30 08:17:10;;;;;;;4.40;3.20;;;;;;;21.59;54.08;98230.13;4852241;29;20379;-83
2023/09/30 08:19:37;;;;;;;4.60;2.80;;;;;;;21.57;53.98;98234.13;4845087;29;20181;-83
2023/09/30 08:22:03;;;;;;;3.53;3.05;;;;;;;21.70;53.42;98238.69;4837364;29;20109;-83
2023/09/30 08:24:31;;;;;;;4.50;3.10;;;;;;;22.01;52.42;98235.50;4854572;29;20296;-83
2023/09/30 08:26:56;;;;;;;5.60;3.08;;;;;;;21.91;52.88;98235.69;4829630;29;20229;-86
2023/09/30 08:29:22;;;;;;;3.55;2.88;;;;;;;21.82;52.94;98233.69;4821452;29;20082;-86
2023/09/30 08:31:50;;;;;;;4.20;2.55;;;;;;;21.70;53.19;98236.81;4845581;29;20188;-86
2023/09/30 08:34:17;;;;;;;4.32;3.03;;;;;;;21.79;53.01;98236.16;4848971;29;20209;-83
2023/09/30 08:36:42;;;;;;;3.85;2.75;;;;;;;21.68;53.40;98201.09;4838560;29;20242;-83
2023/09/30 08:39:10;;;;;;;3.60;2.90;;;;;;;21.99;52.73;98232.34;4840619;29;20283;-84
2023/09/30 08:41:35;;;;;;;3.45;2.70;;;;;;;22.26;51.88;98239.56;4821977;29;20219;-83
2023/09/30 08:44:02;;;;;;;4.22;2.80;;;;;;;22.41;51.81;98238.47;4852107;29;20269;-84
2023/09/30 08:46:33;;;;;;;3.92;2.83;;;;;;;22.53;51.01;98225.50;4835865;29;20188;-83
2023/09/30 08:49:03;;;;;;;3.60;2.80;;;;;;;22.69;51.24;98239.25;4834775;29;20208;-83
2023/09/30 08:51:30;;;;;;;4.68;2.88;;;;;;;22.50;50.82;98231.41;4833113;29;20489;-83
2023/09/30 08:53:56;;;;;;;3.92;2.47;;;;;;;22.55;50.48;98223.34;4821221;29;20195;-83
2023/09/30 08:56:28;;;;;;;3.20;2.85;;;;;;;22.54;50.02;98231.59;4827281;29;20644;-84
2023/09/30 08:58:59;;;;;;;4.22;2.58;;;;;;;22.53;50.01;98233.47;4838216;29;20121;-83
2023/09/30 09:01:29;;;;;;;3.00;2.58;;;;;;;22.26;50.40;98228.94;4821851;29;20248;-84
2023/09/30 09:03:55;;;;;;;3.72;2.40;;;;;;;22.15;51.20;98238.94;4812315;29;20254;-84
2023/09/30 09:06:25;;;;;;;5.65;2.42;;;;;;;22.12;50.91;98241.41;4820615;29;20284;-84
2023/09/30 09:08:51;;;;;;;3.70;2.30;;;;;;;21.98;50.92;98228.13;4821345;29;20212;-83
2023/09/30 09:11:20;;;;;;;3.70;2.67;;;;;;;21.91;51.30;98233.03;4833854;29;20237;-84
2023/09/30 09:13:49;;;;;;;3.67;2.35;;;;;;;22.21;52.30;98237.78;4838549;29;20208;-83
2023/09/30 09:16:16;;;;;;;3.38;2.33;;;;;;;22.23;51.73;98234.84;4814224;29;20105;-84
2023/09/30 09:18:42;;;;;;;3.90;2.40;;;;;;;22.23;51.85;98227.66;4835560;29;20098;-83
2023/09/30 09:21:11;;;;;;;2.67;2.22;;;;;;;22.36;51.64;98230.63;4820911;29;20165;-83
2023/09/30 09:23:44;;;;;;;3.45;2.10;;;;;;;22.59;50.55;98234.16;4836856;29;20287;-84
2023/09/30 09:26:31;;;;;;;2.85;2.13;;;;;;;22.65;50.12;98237.50;4819863;29;20247;-84
2023/09/30 09:29:01;;;;;;;3.95;2.63;;;;;;;22.62;49.96;98228.25;4823223;29;20185;-83
2023/09/30 09:31:36;;;;;;;5.45;2.53;;;;;;;22.62;49.90;98234.34;4831050;29;20656;-84
2023/09/30 09:34:14;;;;;;;3.92;2.67;;;;;;;22.96;48.62;98224.34;4823338;29;20205;-84
2023/09/30 09:36:44;;;;;;;3.20;2.13;;;;;;;23.20;47.78;98232.06;4825625;29;20415;-84
2023/09/30 09:39:13;;;;;;;4.35;2.45;;;;;;;23.23;47.13;98199.56;4820039;29;20284;-83
2023/09/30 09:42:01;;;;;;;3.30;2.63;;;;;;;23.55;46.99;98219.03;4832154;29;20224;-84
2023/09/30 09:44:26;;;;;;;3.92;2.60;;;;;;;23.67;47.28;98216.59;4819164;29;20240;-84
2023/09/30 09:46:52;;;;;;;4.40;2.92;;;;;;;23.76;48.18;98219.28;4845375;29;20723;-84
2023/09/30 09:49:18;;;;;;;2.95;2.17;;;;;;;24.14;46.80;98223.41;4807710;29;20196;-84
2023/09/30 09:51:46;;;;;;;4.78;2.55;;;;;;;24.25;45.00;98220.16;4836106;29;20725;-83
2023/09/30 09:54:15;;;;;;;4.75;2.92;;;;;;;24.26;44.08;98234.22;4821466;29;20196;-84
2023/09/30 09:56:42;;;;;;;4.72;2.60;;;;;;;23.98;44.06;98218.47;4857079;29;20296;-84
2023/09/30 09:59:09;;;;;;;4.75;2.88;;;;;;;23.77;44.09;98217.41;4832565;29;20290;-84
2023/09/30 10:01:35;;;;;;;3.97;2.90;;;;;;;23.29;44.90;98224.19;4835729;29;20221;-85
2023/09/30 10:04:01;;;;;;;4.38;2.70;;;;;;;23.33;45.95;98225.91;4844197;29;20560;-84
2023/09/30 10:06:27;;;;;;;3.72;2.60;;;;;;;23.14;46.15;98217.34;4829488;29;20295;-84
2023/09/30 10:08:53;;;;;;;4.75;2.80;;;;;;;23.05;47.99;98205.81;4859215;29;20362;-84
2023/09/30 10:11:19;;;;;;;3.67;2.88;;;;;;;23.61;47.38;98220.44;4824934;29;20727;-84
2023/09/30 10:13:55;;;;;;;4.50;2.60;;;;;;;24.25;46.34;98196.19;4821774;29;20296;-84
2023/09/30 10:16:36;;;;;;;4.30;3.03;;;;;;;24.77;45.05;98213.41;4823250;29;20313;-85
2023/09/30 10:19:19;;;;;;;3.50;2.65;;;;;;;24.61;44.68;98211.19;4838444;29;20220;-84
2023/09/30 10:22:22;;;;;;;4.07;3.15;;;;;;;24.79;43.82;98214.63;4824681;29;20704;-85
2023/09/30 10:24:49;;;;;;;3.95;2.40;;;;;;;24.84;42.77;98211.03;4858687;29;20515;-84
2023/09/30 10:27:37;;;;;;;5.68;2.85;;;;;;;24.93;41.28;98213.72;4823825;29;20217;-84
2023/09/30 10:30:10;;;;;;;4.32;2.67;;;;;;;25.00;41.43;98214.03;4831637;29;20204;-85
2023/09/30 10:32:52;;;;;;;5.70;3.75;;;;;;;24.84;42.13;98214.47;4831042;29;20277;-84
2023/09/30 10:35:21;;;;;;;4.35;2.70;;;;;;;24.66;42.69;98204.94;4854912;29;20209;-84
2023/09/30 10:37:48;;;;;;;4.88;3.50;;;;;;;24.93;42.04;98193.16;4825816;29;20255;-84
2023/09/30 10:40:27;;;;;;;4.55;3.00;;;;;;;25.22;41.42;98192.56;4823418;29;20125;-84
2023/09/30 10:42:55;;;;;;;5.20;3.22;;;;;;;25.23;41.70;98164.78;4844831;29;20267;-84
2023/09/30 10:45:38;;;;;;;4.53;2.97;;;;;;;25.31;42.31;98192.56;4823194;29;20106;-85
2023/09/30 10:48:25;;;;;;;6.05;2.90;;;;;;;25.60;41.04;98181.22;4834035;29;20296;-84
2023/09/30 10:50:56;;;;;;;5.00;3.17;;;;;;;25.49;40.97;98171.97;4859822;29;20361;-85
2023/09/30 10:53:22;;;;;;;4.75;3.08;;;;;;;25.15;41.08;98157.56;4839384;29;20325;-83
2023/09/30 10:55:54;;;;;;;5.10;3.17;;;;;;;25.33;41.63;98181.59;4808318;29;20285;-83
2023/09/30 10:58:20;;;;;;;5.32;3.33;;;;;;;25.31;40.76;98194.44;4806861;29;20252;-84
2023/09/30 11:00:55;;;;;;;4.75;2.67;;;;;;;25.50;40.93;98186.06;4841875;29;20684;-84
2023/09/30 11:03:21;;;;;;;5.55;3.35;;;;;;;25.25;41.70;98193.78;4848086;29;20082;-84
2023/09/30 11:05:52;;;;;;;5.32;3.05;;;;;;;24.61;42.71;98173.91;4844078;29;20220;-84
2023/09/30 11:08:22;;;;;;;5.88;3.50;;;;;;;24.70;41.71;98194.44;4831734;29;20161;-85
2023/09/30 11:10:52;;;;;;;3.75;3.05;;;;;;;24.31;42.45;98194.16;4855115;29;20195;-84
2023/09/30 11:13:18;;;;;;;4.18;3.10;;;;;;;24.06;42.57;98203.63;4869931;29;20256;-85
2023/09/30 11:15:44;;;;;;;5.53;3.15;;;;;;;23.68;44.23;98204.06;4869565;29;20319;-84
2023/09/30 11:18:28;;;;;;;4.68;2.80;;;;;;;23.70;43.72;98210.66;4857662;29;20213;-85
2023/09/30 11:21:04;;;;;;;4.00;3.17;;;;;;;23.54;44.42;98210.28;4866796;29;20324;-84
2023/09/30 11:23:30;;;;;;;4.75;3.20;;;;;;;23.48;44.10;98208.03;4874394;29;20238;-85
2023/09/30 11:25:56;;;;;;;6.47;3.45;;;;;;;23.50;44.00;98208.50;4822467;29;20197;-85
2023/09/30 11:28:22;;;;;;;6.32;3.53;;;;;;;23.68;44.39;98215.50;4838433;29;20145;-84
2023/09/30 11:31:01;;;;;;;5.57;2.92;;;;;;;24.28;43.79;98221.41;4854388;29;20296;-85
2023/09/30 11:33:27;;;;;;;7.93;3.28;;;;;;;24.44;42.71;98217.22;4865651;29;20366;-84
2023/09/30 11:35:57;;;;;;;6.38;2.92;;;;;;;25.04;41.19;98196.31;4879139;29;20075;-84
2023/09/30 11:38:23;;;;;;;5.38;3.20;;;;;;;25.60;39.70;98210.53;4884417;29;20031;-86